Time;durP1;ratioP1;P1;durP2;ratioP2;P2;SDS_P1;SDS_P2;PMS_P1;PMS_P2;Temp;Humidity;BMP_temperature;BMP_pressure;BME280_temperature;BME280_humidity;BME280_pressure;Samples;Min_cycle;Max_cycle;Signal;HPM_P1;HPM_P2
2023/12/19 00:02:18;;;;;;;121.05;63.92;;;;;;;-0.66;100.00;94268.09;5110993;27;20736;-77
2023/12/19 00:04:45;;;;;;;112.57;60.85;;;;;;;-0.64;100.00;94263.72;5110124;27;20044;-77
2023/12/19 00:07:12;;;;;;;111.00;60.83;;;;;;;-0.55;100.00;94265.56;5111426;27;20146;-77
2023/12/19 00:09:39;;;;;;;101.82;54.40;;;;;;;-0.59;100.00;94264.19;5112497;27;20048;-77
2023/12/19 00:12:08;;;;;;;100.10;52.38;;;;;;;-0.55;100.00;94258.78;5118709;27;20047;-76
2023/12/19 00:14:35;;;;;;;114.97;60.35;;;;;;;-0.62;100.00;94262.69;5114116;27;20410;-76
2023/12/19 00:17:02;;;;;;;113.38;62.25;;;;;;;-0.62;100.00;94265.22;5121138;27;20051;-76
2023/12/19 00:19:30;;;;;;;101.20;57.88;;;;;;;-0.64;100.00;94261.19;5121037;27;20047;-77
2023/12/19 00:21:57;;;;;;;111.00;67.97;;;;;;;-0.61;100.00;94266.81;5114903;27;20046;-76
2023/12/19 00:24:24;;;;;;;113.97;61.08;;;;;;;-0.72;100.00;94259.25;5110423;27;20065;-76
2023/12/19 00:26:51;;;;;;;127.03;72.80;;;;;;;-0.70;100.00;94258.22;5121235;27;20392;-77
2023/12/19 00:29:18;;;;;;;125.07;67.53;;;;;;;-0.69;100.00;94256.50;5115682;27;20126;-76
2023/12/19 00:31:45;;;;;;;122.80;67.85;;;;;;;-0.90;100.00;94238.69;5119423;27;20058;-76
2023/12/19 00:34:13;;;;;;;124.93;68.38;;;;;;;-0.61;100.00;94269.34;5111584;27;20056;-76
2023/12/19 00:36:42;;;;;;;119.07;59.60;;;;;;;-0.60;100.00;94263.38;5113703;27;20051;-76
2023/12/19 00:39:09;;;;;;;112.10;60.65;;;;;;;-0.70;100.00;94262.44;5109779;27;20130;-77
2023/12/19 00:41:36;;;;;;;112.28;62.47;;;;;;;-0.62;100.00;94267.75;5112010;27;20054;-76
2023/12/19 00:44:03;;;;;;;106.75;61.83;;;;;;;-0.62;100.00;94269.44;5111816;27;20058;-76
2023/12/19 00:46:30;;;;;;;102.03;61.85;;;;;;;-0.66;100.00;94268.88;5110992;27;20050;-76
2023/12/19 00:48:57;;;;;;;105.20;63.08;;;;;;;-0.74;100.00;94266.13;5110518;27;20054;-76
2023/12/19 00:51:24;;;;;;;130.23;70.25;;;;;;;-0.72;100.00;94275.19;5113304;27;20051;-76
2023/12/19 00:53:53;;;;;;;115.00;64.75;;;;;;;-0.71;100.00;94274.28;5127856;27;20079;-76
2023/12/19 00:56:20;;;;;;;115.03;68.38;;;;;;;-0.70;100.00;94275.88;5118666;27;20043;-76
2023/12/19 00:58:47;;;;;;;116.60;66.18;;;;;;;-0.76;100.00;94273.81;5114048;27;20054;-76
2023/12/19 01:01:14;;;;;;;117.10;67.88;;;;;;;-0.77;100.00;94276.44;5110262;27;20050;-76
2023/12/19 01:03:40;;;;;;;113.78;66.93;;;;;;;-0.73;100.00;94278.66;5113726;27;20051;-76
2023/12/19 01:06:07;;;;;;;125.43;72.22;;;;;;;-0.74;100.00;94273.69;5110179;27;20533;-77
2023/12/19 01:08:35;;;;;;;127.60;73.40;;;;;;;-0.73;100.00;94271.06;5113309;27;20054;-77
2023/12/19 01:11:04;;;;;;;114.82;67.43;;;;;;;-0.67;100.00;94274.84;5114475;27;20048;-76
2023/12/19 01:13:31;;;;;;;95.20;54.00;;;;;;;-0.63;100.00;94272.88;5113104;27;20873;-76
2023/12/19 01:15:58;;;;;;;93.68;50.72;;;;;;;-0.69;100.00;94269.91;5108920;27;20052;-76
2023/12/19 01:18:25;;;;;;;89.57;49.25;;;;;;;-0.69;100.00;94269.13;5109967;27;20043;-77
2023/12/19 01:20:52;;;;;;;81.45;44.97;;;;;;;-0.69;100.00;94274.16;5108918;27;20487;-76
2023/12/19 01:23:19;;;;;;;75.80;42.45;;;;;;;-0.70;100.00;94262.44;5109147;27;20046;-77
2023/12/19 01:25:45;;;;;;;86.72;47.92;;;;;;;-0.71;100.00;94268.41;5109421;27;20388;-76
2023/12/19 01:28:15;;;;;;;84.53;45.75;;;;;;;-0.81;100.00;94261.53;5121856;27;20122;-76
2023/12/19 01:30:43;;;;;;;96.43;54.20;;;;;;;-0.85;100.00;94256.81;5108902;27;20053;-76
2023/12/19 01:33:10;;;;;;;101.13;56.50;;;;;;;-0.82;100.00;94242.25;5109036;27;20503;-76
2023/12/19 01:35:37;;;;;;;97.07;54.97;;;;;;;-0.88;100.00;94260.38;5111314;27;20090;-77
2023/12/19 01:38:05;;;;;;;89.00;47.38;;;;;;;-0.99;100.00;94258.66;5108313;27;20059;-76
2023/12/19 01:40:32;;;;;;;87.85;51.08;;;;;;;-0.95;100.00;94252.47;5111275;27;20047;-77
2023/12/19 01:42:59;;;;;;;83.18;51.17;;;;;;;-0.98;100.00;94250.16;5117585;27;20039;-77
2023/12/19 01:45:29;;;;;;;83.65;50.20;;;;;;;-1.00;100.00;94252.00;5110782;27;20052;-76
2023/12/19 01:47:56;;;;;;;87.00;48.00;;;;;;;-1.07;100.00;94245.78;5116668;27;20140;-77
2023/12/19 01:50:24;;;;;;;101.60;60.83;;;;;;;-0.99;100.00;94248.56;5110822;27;20058;-77
2023/12/19 01:52:54;;;;;;;99.78;59.67;;;;;;;-1.03;100.00;94241.34;5120715;27;20047;-77
2023/12/19 01:55:24;;;;;;;96.35;57.05;;;;;;;-1.04;100.00;94235.50;5112036;27;20043;-76
2023/12/19 01:57:52;;;;;;;90.50;56.53;;;;;;;-1.02;100.00;94236.16;5123361;27;20043;-77
2023/12/19 02:00:19;;;;;;;87.35;51.22;;;;;;;-0.93;100.00;94249.03;5115455;27;20414;-76
2023/12/19 02:02:48;;;;;;;90.85;52.45;;;;;;;-0.85;100.00;94241.69;5115025;27;20047;-77
2023/12/19 02:05:15;;;;;;;96.90;55.15;;;;;;;-0.82;100.00;94239.72;5112253;27;20112;-77
2023/12/19 02:07:42;;;;;;;89.68;50.38;;;;;;;-0.93;100.00;94242.25;5108235;27;20043;-77
2023/12/19 02:10:09;;;;;;;81.07;48.92;;;;;;;-0.86;100.00;94240.09;5108813;27;20051;-77
2023/12/19 02:12:36;;;;;;;80.03;48.05;;;;;;;-0.84;100.00;94240.75;5108278;27;20498;-75
2023/12/19 02:15:05;;;;;;;73.60;43.90;;;;;;;-0.85;100.00;94239.97;5108650;27;20134;-75
2023/12/19 02:17:32;;;;;;;67.40;42.28;;;;;;;-0.83;100.00;94233.09;5110738;27;20047;-75
2023/12/19 02:20:01;;;;;;;67.10;40.22;;;;;;;-0.88;100.00;94231.84;5108131;27;20040;-74
2023/12/19 02:22:29;;;;;;;66.28;40.97;;;;;;;-0.95;100.00;94232.31;5113467;27;20047;-78
2023/12/19 02:24:58;;;;;;;65.32;39.15;;;;;;;-0.94;100.00;94223.00;5124090;27;20456;-76
2023/12/19 02:27:26;;;;;;;64.90;38.25;;;;;;;-0.90;100.00;94226.91;5108084;27;20057;-76
2023/12/19 02:29:53;;;;;;;58.88;32.55;;;;;;;-0.93;100.00;94224.59;5108789;27;20083;-76
2023/12/19 02:32:20;;;;;;;54.25;29.05;;;;;;;-0.91;100.00;94229.53;5107179;27;20055;-76
2023/12/19 02:34:48;;;;;;;54.85;30.13;;;;;;;-0.98;100.00;94224.13;5111661;27;20047;-75
2023/12/19 02:37:15;;;;;;;46.25;28.30;;;;;;;-0.96;100.00;94220.56;5107952;28;20131;-75
2023/12/19 02:39:42;;;;;;;42.97;26.63;;;;;;;-0.99;100.00;94220.00;5126904;27;20043;-75
2023/12/19 02:42:10;;;;;;;44.28;30.25;;;;;;;-0.97;100.00;94218.97;5118306;27;20126;-75
2023/12/19 02:44:37;;;;;;;50.50;32.92;;;;;;;-1.08;100.00;94219.78;5107716;28;20053;-75
2023/12/19 02:47:04;;;;;;;52.92;33.58;;;;;;;-1.15;100.00;94218.63;5107821;28;20415;-75
2023/12/19 02:49:31;;;;;;;62.97;38.72;;;;;;;-1.23;100.00;94218.38;5109909;28;20050;-75
2023/12/19 02:51:58;;;;;;;63.65;37.05;;;;;;;-1.29;100.00;94227.19;5107937;28;20062;-76
2023/12/19 02:54:25;;;;;;;68.57;41.65;;;;;;;-1.26;100.00;94221.94;5108101;28;20050;-76
2023/12/19 02:56:51;;;;;;;88.30;48.10;;;;;;;-1.25;100.00;94213.44;5109951;28;20590;-76
2023/12/19 02:59:19;;;;;;;82.30;48.22;;;;;;;-1.16;100.00;94208.66;5108041;28;20130;-75
2023/12/19 03:01:47;;;;;;;80.45;43.65;;;;;;;-1.44;100.00;94191.31;5109955;28;20052;-75
2023/12/19 03:04:14;;;;;;;77.55;43.97;;;;;;;-1.23;100.00;94209.13;5107406;28;20051;-75
2023/12/19 03:06:41;;;;;;;80.28;46.42;;;;;;;-1.25;100.00;94210.13;5107035;28;20054;-76
2023/12/19 03:09:08;;;;;;;86.22;48.22;;;;;;;-1.22;100.00;94205.69;5118284;28;20051;-75
2023/12/19 03:11:38;;;;;;;93.30;49.83;;;;;;;-1.43;100.00;94182.81;5111195;28;20069;-76
2023/12/19 03:14:05;;;;;;;88.43;48.80;;;;;;;-1.36;100.00;94196.59;5107466;28;20503;-76
2023/12/19 03:16:34;;;;;;;87.03;48.55;;;;;;;-1.36;100.00;94204.16;5112124;28;20075;-77
2023/12/19 03:19:00;;;;;;;79.00;41.80;;;;;;;-1.34;100.00;94206.56;5108568;28;20047;-77
2023/12/19 03:21:27;;;;;;;73.75;40.80;;;;;;;-1.45;100.00;94211.59;5107931;28;20066;-75
2023/12/19 03:23:54;;;;;;;73.18;43.10;;;;;;;-1.51;100.00;94206.09;5109731;28;20130;-75
2023/12/19 03:26:21;;;;;;;77.75;45.70;;;;;;;-1.58;100.00;94201.59;5107531;28;20050;-76
2023/12/19 03:28:48;;;;;;;77.13;44.45;;;;;;;-1.55;100.00;94202.16;5111646;28;20134;-76
2023/12/19 03:31:30;;;;;;;;;;;;;;;;;;;;;
2023/12/19 03:34:26;;;;;;;84.63;46.38;;;;;;;-1.74;100.00;94190.09;5119670;27;20047;-76
2023/12/19 03:37:01;;;;;;;89.10;48.15;;;;;;;-1.69;100.00;94207.38;5117235;27;20047;-75
2023/12/19 03:39:46;;;;;;;81.40;47.45;;;;;;;-1.66;100.00;94205.44;5111354;27;20093;-78
2023/12/19 03:42:34;;;;;;;79.75;46.47;;;;;;;-2.60;100.00;94080.25;5111876;27;20384;-77
2023/12/19 03:47:57;;;;;;;84.28;44.67;;;;;;;-1.52;100.00;94196.09;5123481;27;20050;-76
2023/12/19 03:50:55;;;;;;;85.97;47.33;;;;;;;-1.82;100.00;94160.41;5124078;27;20104;-78
2023/12/19 03:54:16;;;;;;;;;;;;;;;;;;;;;
2023/12/19 03:57:16;;;;;;;101.60;51.25;;;;;;;-1.69;100.00;94193.09;5109834;27;20047;-78
2023/12/19 03:59:46;;;;;;;81.53;46.13;;;;;;;-1.61;100.00;94207.66;5120982;27;20047;-76
2023/12/19 04:02:15;;;;;;;126.88;69.80;;;;;;;-1.51;100.00;94201.03;5115118;27;20048;-77
2023/12/19 04:05:09;;;;;;;97.20;52.67;;;;;;;-1.94;100.00;94141.16;5111693;27;20388;-77
2023/12/19 04:07:59;;;;;;;80.93;45.22;;;;;;;-2.45;100.00;94058.25;5004377;28;20073;-77
2023/12/19 04:10:46;;;;;;;62.85;36.40;;;;;;;-2.51;100.00;94067.97;5115323;27;20047;-78
2023/12/19 04:13:33;;;;;;;57.25;33.50;;;;;;;-2.64;100.00;94047.91;5122860;27;20593;-77
2023/12/19 04:18:58;;;;;;;53.88;33.17;;;;;;;-1.66;100.00;94184.50;5111293;27;20059;-77
2023/12/19 04:24:34;;;;;;;59.40;32.40;;;;;;;-2.61;100.00;94050.19;5108261;27;20052;-78
2023/12/19 04:27:39;;;;;;;58.72;32.45;;;;;;;-1.65;100.00;94183.59;5116509;27;20040;-77
2023/12/19 04:30:07;;;;;;;56.83;31.00;;;;;;;-1.65;100.00;94191.16;5031201;28;20048;-78
2023/12/19 04:32:38;;;;;;;55.90;31.42;;;;;;;-1.71;100.00;94177.25;5035653;28;20053;-79
2023/12/19 04:35:13;;;;;;;54.78;31.10;;;;;;;-1.70;100.00;94181.41;5026646;28;20567;-78
2023/12/19 04:37:44;;;;;;;57.90;31.90;;;;;;;-2.06;100.00;94158.75;5109796;27;20059;-78
2023/12/19 04:40:26;;;;;;;64.05;35.33;;;;;;;-1.88;100.00;94174.25;5111203;27;20081;-78
2023/12/19 04:42:53;;;;;;;67.53;36.30;;;;;;;-1.76;100.00;94200.25;5109865;28;20491;-78
2023/12/19 04:45:19;;;;;;;69.30;37.00;;;;;;;-1.81;100.00;94201.53;5117277;27;20052;-78
2023/12/19 04:47:51;;;;;;;66.10;35.10;;;;;;;-1.76;100.00;94197.75;5117989;27;21017;-78
2023/12/19 04:50:20;;;;;;;62.88;33.95;;;;;;;-2.05;100.00;94151.97;5117821;27;20054;-78
2023/12/19 04:52:48;;;;;;;68.15;33.85;;;;;;;-1.77;100.00;94203.72;5109918;27;20128;-78
2023/12/19 04:55:17;;;;;;;61.53;33.35;;;;;;;-1.81;100.00;94189.72;5116241;27;20051;-78
2023/12/19 04:57:50;;;;;;;57.20;32.53;;;;;;;-1.85;100.00;94175.72;5110866;27;20478;-78
2023/12/19 05:00:22;;;;;;;65.35;34.30;;;;;;;-1.79;100.00;94208.06;5111638;27;20048;-78
2023/12/19 05:02:49;;;;;;;62.58;36.40;;;;;;;-1.77;100.00;94216.28;5109460;27;20055;-78
2023/12/19 05:08:40;;;;;;;;;;;;;;;;;;;;;
2023/12/19 05:11:21;;;;;;;73.35;40.92;;;;;;;-2.52;100.00;94135.06;5080997;28;20056;-77
2023/12/19 05:13:49;;;;;;;74.55;40.90;;;;;;;-1.99;100.00;94217.00;5081784;28;20566;-78
2023/12/19 05:16:30;;;;;;;69.63;38.33;;;;;;;-2.12;100.00;94219.59;5081551;28;20048;-78
2023/12/19 05:18:57;;;;;;;76.50;38.70;;;;;;;-2.07;100.00;94220.06;5082484;28;20133;-77
2023/12/19 05:21:24;;;;;;;75.05;39.80;;;;;;;-2.03;100.00;94228.22;5110099;27;20518;-76
2023/12/19 05:23:58;;;;;;;67.53;37.08;;;;;;;-2.30;100.00;94189.72;5109541;27;20047;-76
2023/12/19 05:26:48;;;;;;;62.63;37.55;;;;;;;-2.23;100.00;94192.63;5108894;27;20403;-77
2023/12/19 05:29:19;;;;;;;74.75;40.15;;;;;;;-1.92;100.00;94232.47;5110496;27;20044;-76
2023/12/19 05:31:49;;;;;;;74.05;40.83;;;;;;;-1.93;100.00;94224.16;5108777;27;20525;-77
2023/12/19 05:34:23;;;;;;;78.43;39.00;;;;;;;-2.09;100.00;94204.25;5113792;27;20055;-77
2023/12/19 05:36:52;;;;;;;77.78;40.70;;;;;;;-2.06;100.00;94193.16;5109166;27;20104;-77
2023/12/19 05:39:31;;;;;;;83.82;44.05;;;;;;;-1.79;100.00;94222.34;5110564;27;20047;-77
2023/12/19 05:41:59;;;;;;;70.32;37.65;;;;;;;-1.86;100.00;94233.78;5108740;27;20055;-78
2023/12/19 05:44:26;;;;;;;74.05;40.03;;;;;;;-1.96;100.00;94224.34;5109474;27;20054;-78
2023/12/19 05:46:53;;;;;;;73.15;40.55;;;;;;;-1.83;100.00;94226.00;5109421;27;20051;-78
2023/12/19 05:49:20;;;;;;;75.97;40.25;;;;;;;-1.90;100.00;94236.50;5109116;27;20113;-78
2023/12/19 05:51:47;;;;;;;72.78;37.00;;;;;;;-2.03;100.00;94216.41;5110119;27;20146;-78
2023/12/19 05:54:14;;;;;;;72.15;39.60;;;;;;;-1.91;100.00;94232.38;5112822;27;20039;-78
2023/12/19 05:56:41;;;;;;;75.65;38.10;;;;;;;-1.83;100.00;94236.88;5118049;27;20047;-78
2023/12/19 05:59:10;;;;;;;68.90;34.65;;;;;;;-1.81;100.00;94237.56;5108444;27;20604;-79
2023/12/19 06:01:42;;;;;;;77.72;38.22;;;;;;;-2.00;100.00;94220.44;5123384;27;20134;-78
2023/12/19 06:04:09;;;;;;;73.40;40.22;;;;;;;-1.80;100.00;94225.78;5125557;27;20050;-78
2023/12/19 06:06:40;;;;;;;72.78;37.80;;;;;;;-1.86;100.00;94233.78;5110029;27;20051;-78
2023/12/19 06:09:08;;;;;;;81.35;40.08;;;;;;;-1.80;100.00;94231.63;5108636;27;20086;-77
2023/12/19 06:11:35;;;;;;;80.13;39.92;;;;;;;-1.82;100.00;94230.94;5108872;27;20059;-78
2023/12/19 06:14:02;;;;;;;82.93;40.15;;;;;;;-1.97;100.00;94215.19;5110011;27;20054;-78
2023/12/19 06:16:31;;;;;;;115.45;55.60;;;;;;;-1.95;100.00;94230.97;5108636;28;20568;-78
2023/12/19 06:18:58;;;;;;;103.32;52.17;;;;;;;-2.00;100.00;94235.53;5108452;27;20071;-79
2023/12/19 06:21:25;;;;;;;108.63;53.72;;;;;;;-1.95;100.00;94225.16;5113745;27;20047;-78
2023/12/19 06:23:52;;;;;;;111.68;56.25;;;;;;;-1.91;100.00;94213.94;5108266;27;20050;-79
2023/12/19 06:26:19;;;;;;;88.70;47.50;;;;;;;-1.89;100.00;94212.91;5108943;27;20499;-78
2023/12/19 06:28:46;;;;;;;104.93;49.92;;;;;;;-1.89;100.00;94202.84;5107989;27;20044;-78
2023/12/19 06:31:13;;;;;;;96.70;50.17;;;;;;;-1.77;100.00;94207.94;5108806;27;20043;-78
2023/12/19 06:33:43;;;;;;;101.90;49.78;;;;;;;-1.75;100.00;94211.94;5108320;27;20105;-77
2023/12/19 06:36:10;;;;;;;96.97;47.13;;;;;;;-1.70;100.00;94216.69;5108748;27;20131;-77
2023/12/19 06:38:37;;;;;;;98.82;48.67;;;;;;;-1.71;100.00;94211.75;5108905;27;20051;-77
2023/12/19 06:41:04;;;;;;;128.93;64.47;;;;;;;-1.63;100.00;94210.28;5116560;27;20047;-78
2023/12/19 06:43:31;;;;;;;101.40;49.60;;;;;;;-1.62;100.00;94206.84;5112445;27;20053;-78
2023/12/19 06:45:58;;;;;;;103.88;48.83;;;;;;;-1.60;100.00;94206.72;5115207;28;20057;-78
2023/12/19 06:48:25;;;;;;;93.38;49.13;;;;;;;-1.58;100.00;94214.19;5113778;27;20043;-77
2023/12/19 06:50:53;;;;;;;95.93;50.10;;;;;;;-1.51;100.00;94220.38;5112689;28;20049;-77
2023/12/19 06:53:20;;;;;;;88.70;44.05;;;;;;;-1.50;100.00;94219.47;5115513;28;20056;-77
2023/12/19 06:55:47;;;;;;;84.90;41.58;;;;;;;-1.54;100.00;94202.97;5108029;28;20081;-76
2023/12/19 06:58:14;;;;;;;77.43;43.40;;;;;;;-1.46;100.00;94209.97;5110805;28;20421;-76
2023/12/19 07:00:41;;;;;;;89.93;43.85;;;;;;;-1.45;100.00;94211.59;5109661;28;20050;-77
2023/12/19 07:03:08;;;;;;;98.63;51.20;;;;;;;-1.42;100.00;94222.25;5109258;28;20143;-77
2023/12/19 07:05:35;;;;;;;103.07;56.65;;;;;;;-1.52;100.00;94218.78;5109382;28;20058;-77
2023/12/19 07:08:05;;;;;;;110.03;59.45;;;;;;;-1.52;100.00;94212.00;5114359;27;20058;-77
2023/12/19 07:10:32;;;;;;;108.97;57.65;;;;;;;-1.57;100.00;94200.66;5113617;27;20062;-77
2023/12/19 07:12:59;;;;;;;119.57;62.95;;;;;;;-1.44;100.00;94213.97;5115422;27;20894;-77
2023/12/19 07:15:26;;;;;;;114.65;60.75;;;;;;;-1.37;100.00;94217.69;5114786;27;20157;-77
2023/12/19 07:17:53;;;;;;;109.35;58.75;;;;;;;-1.36;100.00;94216.75;5114878;27;20054;-77
2023/12/19 07:20:20;;;;;;;108.63;54.88;;;;;;;-1.26;100.00;94221.13;5116919;27;20051;-77
2023/12/19 07:22:47;;;;;;;102.07;55.17;;;;;;;-1.33;100.00;94218.25;5120235;27;20051;-77
2023/12/19 07:25:16;;;;;;;104.32;53.88;;;;;;;-1.28;100.00;94220.44;5111650;27;20048;-76
2023/12/19 07:27:44;;;;;;;126.28;66.20;;;;;;;-1.24;100.00;94224.34;5128810;27;20043;-76
2023/12/19 07:30:12;;;;;;;158.68;87.00;;;;;;;-1.31;100.00;94225.72;5112750;27;20448;-76
2023/12/19 07:32:39;;;;;;;179.40;95.90;;;;;;;-1.47;100.00;94229.34;5110882;28;20051;-76
2023/12/19 07:35:09;;;;;;;175.23;95.68;;;;;;;-1.48;100.00;94235.31;5120114;27;20490;-76
2023/12/19 07:37:37;;;;;;;161.18;95.47;;;;;;;-1.33;100.00;94225.81;5111865;27;20083;-76
2023/12/19 07:40:05;;;;;;;165.35;93.15;;;;;;;-1.18;100.00;94228.94;5110971;27;20066;-76
2023/12/19 07:42:34;;;;;;;178.23;99.13;;;;;;;-1.15;100.00;94226.19;5112379;27;20047;-77
2023/12/19 07:45:02;;;;;;;168.07;103.88;;;;;;;-1.01;100.00;94211.75;5111963;27;20040;-77
2023/12/19 07:47:29;;;;;;;180.30;107.05;;;;;;;-0.85;100.00;94219.78;5111218;27;20140;-77
2023/12/19 07:49:56;;;;;;;183.43;101.82;;;;;;;-0.72;100.00;94207.06;5112651;27;20043;-77
2023/12/19 07:52:23;;;;;;;186.90;105.10;;;;;;;-0.63;100.00;94208.09;5111214;27;20082;-78
2023/12/19 07:54:50;;;;;;;204.02;114.13;;;;;;;-0.46;100.00;94208.53;5113390;27;20122;-78
2023/12/19 07:57:17;;;;;;;246.43;132.50;;;;;;;-0.38;100.00;94205.44;5127525;27;20508;-78
2023/12/19 07:59:46;;;;;;;211.10;117.63;;;;;;;-0.50;100.00;94170.13;5111081;27;20048;-79
2023/12/19 08:02:13;;;;;;;229.45;123.93;;;;;;;-0.36;100.00;94204.41;5111193;27;20126;-79
2023/12/19 08:04:42;;;;;;;205.18;114.38;;;;;;;-0.42;100.00;94203.13;5115229;27;20043;-77
2023/12/19 08:07:09;;;;;;;199.00;114.15;;;;;;;-0.57;100.00;94199.25;5128872;27;20047;-78
2023/12/19 08:09:36;;;;;;;166.95;92.15;;;;;;;-0.64;100.00;94193.88;5127470;27;20060;-78
2023/12/19 08:12:03;;;;;;;179.88;96.30;;;;;;;-0.70;100.00;94181.69;5118551;27;20054;-79
2023/12/19 08:14:30;;;;;;;160.18;88.75;;;;;;;-0.47;100.00;94189.28;5111451;27;20523;-78
2023/12/19 08:16:58;;;;;;;119.18;73.70;;;;;;;-0.56;100.00;94180.66;5114651;27;20054;-78
2023/12/19 08:19:25;;;;;;;109.85;66.40;;;;;;;-0.49;100.00;94181.81;5108940;27;20598;-78
2023/12/19 08:21:55;;;;;;;120.78;70.68;;;;;;;-0.31;100.00;94172.03;5114768;27;20063;-80
2023/12/19 08:24:22;;;;;;;126.43;73.95;;;;;;;-0.30;100.00;94160.19;5111042;27;20708;-80
2023/12/19 08:26:49;;;;;;;161.60;90.53;;;;;;;-0.26;100.00;94164.09;5110909;27;20058;-78
2023/12/19 08:29:17;;;;;;;157.50;88.93;;;;;;;-0.09;100.00;94170.31;5112648;27;20092;-77
2023/12/19 08:31:45;;;;;;;144.23;84.13;;;;;;;-0.03;100.00;94164.81;5128961;27;20047;-77
2023/12/19 08:34:18;;;;;;;137.68;85.70;;;;;;;0.11;100.00;94162.91;5122808;27;20142;-77
2023/12/19 08:36:45;;;;;;;139.30;82.97;;;;;;;0.09;100.00;94157.97;5116170;27;20047;-77
2023/12/19 08:39:11;;;;;;;153.07;87.28;;;;;;;-0.05;100.00;94154.00;5128427;27;20055;-77
2023/12/19 08:41:38;;;;;;;118.00;71.78;;;;;;;0.07;100.00;94146.38;5128601;27;20058;-78
2023/12/19 08:44:05;;;;;;;113.15;67.22;;;;;;;0.02;100.00;94146.75;5120496;27;20502;-78
2023/12/19 08:46:32;;;;;;;112.88;63.05;;;;;;;0.09;100.00;94142.03;5110563;27;20082;-79
2023/12/19 08:49:00;;;;;;;110.07;64.57;;;;;;;-0.58;100.00;94132.03;5110457;27;20415;-79
2023/12/19 08:51:29;;;;;;;138.93;76.03;;;;;;;-0.50;100.00;94126.41;5114733;27;20134;-77
2023/12/19 08:53:56;;;;;;;134.38;77.72;;;;;;;-0.54;100.00;94131.66;5112210;27;20054;-77
2023/12/19 08:56:23;;;;;;;135.20;82.15;;;;;;;-0.37;100.00;94129.56;5109922;27;20048;-77
2023/12/19 08:58:50;;;;;;;126.95;70.70;;;;;;;-0.37;100.00;94116.94;5110324;27;20048;-78
2023/12/19 09:01:17;;;;;;;185.68;102.32;;;;;;;-0.09;100.00;94127.38;5110338;27;20483;-78
2023/12/19 09:03:44;;;;;;;153.23;81.30;;;;;;;-0.28;100.00;94126.31;5112425;27;20051;-78
2023/12/19 09:06:11;;;;;;;144.85;80.10;;;;;;;-0.16;100.00;94128.81;5109793;27;20052;-77
2023/12/19 09:08:39;;;;;;;150.85;83.40;;;;;;;-0.04;100.00;94124.53;5115539;27;20050;-77
2023/12/19 09:11:07;;;;;;;151.63;85.35;;;;;;;-0.16;100.00;94122.03;5120656;27;20051;-78
2023/12/19 09:13:38;;;;;;;165.35;90.05;;;;;;;-0.16;100.00;94111.13;5109653;27;20511;-78
2023/12/19 09:16:06;;;;;;;159.32;86.50;;;;;;;-0.04;100.00;94109.38;5111777;27;20057;-78
2023/12/19 09:18:33;;;;;;;158.38;84.55;;;;;;;-0.38;100.00;94076.69;5111375;27;20047;-77
2023/12/19 09:21:00;;;;;;;158.30;91.30;;;;;;;-0.19;100.00;94093.72;5127578;27;20043;-79
2023/12/19 09:23:27;;;;;;;176.70;96.00;;;;;;;-0.16;100.00;94098.50;5111921;27;20411;-78
2023/12/19 09:25:55;;;;;;;179.32;97.80;;;;;;;-0.06;100.00;94085.94;5116318;27;20047;-78
2023/12/19 09:28:23;;;;;;;186.27;97.93;;;;;;;0.07;100.00;94093.34;5124966;27;20060;-78
2023/12/19 09:30:51;;;;;;;178.52;99.57;;;;;;;0.15;100.00;94085.16;5117587;27;20047;-77
2023/12/19 09:33:18;;;;;;;185.43;100.65;;;;;;;0.41;100.00;94090.59;5109393;27;20059;-77
2023/12/19 09:35:45;;;;;;;186.50;100.57;;;;;;;0.39;100.00;94082.34;5127657;27;20883;-77
2023/12/19 09:38:12;;;;;;;193.90;103.93;;;;;;;0.50;100.00;94074.69;5127232;27;20050;-77
2023/12/19 09:40:40;;;;;;;202.55;110.40;;;;;;;0.45;100.00;94070.94;5113177;27;20051;-77
2023/12/19 09:43:08;;;;;;;167.80;95.85;;;;;;;0.61;100.00;94067.97;5109331;27;20089;-77
2023/12/19 09:45:36;;;;;;;141.63;81.13;;;;;;;0.64;100.00;94053.31;5109226;27;20059;-77
2023/12/19 09:48:04;;;;;;;164.35;91.80;;;;;;;0.68;100.00;94063.19;5111307;27;20062;-77
2023/12/19 09:50:33;;;;;;;126.32;72.28;;;;;;;0.79;100.00;94058.03;5111032;27;20051;-77
2023/12/19 09:53:01;;;;;;;130.70;74.50;;;;;;;1.08;100.00;94052.25;5109291;27;20040;-77
2023/12/19 09:55:29;;;;;;;120.80;70.00;;;;;;;1.25;100.00;94055.88;5110282;27;20053;-77
2023/12/19 09:57:57;;;;;;;116.55;66.93;;;;;;;1.43;100.00;94052.72;5111626;27;20046;-77
2023/12/19 10:00:28;;;;;;;105.35;64.75;;;;;;;1.41;100.00;94017.38;5110570;27;20047;-77
2023/12/19 10:02:55;;;;;;;100.28;56.80;;;;;;;1.56;100.00;94038.03;5125160;27;20047;-76
2023/12/19 10:05:22;;;;;;;92.00;56.03;;;;;;;1.64;100.00;94039.91;5122507;27;20077;-76
2023/12/19 10:07:49;;;;;;;98.55;60.70;;;;;;;1.82;100.00;94034.97;5119817;27;20424;-76
2023/12/19 10:10:18;;;;;;;105.28;62.60;;;;;;;1.91;100.00;94037.63;5127670;27;20051;-76
2023/12/19 10:12:49;;;;;;;97.13;58.90;;;;;;;2.09;100.00;94032.66;5125012;27;20418;-76
2023/12/19 10:15:16;;;;;;;92.72;57.35;;;;;;;2.19;100.00;94025.84;5107401;28;20044;-77
2023/12/19 10:18:10;;;;;;;92.40;57.03;;;;;;;2.36;100.00;94024.28;5110407;27;20050;-76
2023/12/19 10:20:38;;;;;;;97.18;56.83;;;;;;;2.40;100.00;94012.94;5107589;27;20132;-77
2023/12/19 10:23:05;;;;;;;88.25;53.53;;;;;;;2.48;100.00;94017.31;5109185;27;20058;-77
2023/12/19 10:25:32;;;;;;;94.07;54.25;;;;;;;2.47;100.00;94008.13;5108250;27;20054;-77
2023/12/19 10:28:08;;;;;;;93.18;52.42;;;;;;;2.51;100.00;93983.28;5108202;27;21103;-77
2023/12/19 10:30:35;;;;;;;86.43;51.45;;;;;;;2.69;100.00;93969.84;5110270;27;20058;-77
2023/12/19 10:33:02;;;;;;;75.70;47.55;;;;;;;3.05;100.00;93995.25;5116005;27;20051;-77
2023/12/19 10:35:38;;;;;;;74.30;42.92;;;;;;;3.09;100.00;93991.50;5126266;27;20566;-77
2023/12/19 10:38:05;;;;;;;77.80;48.65;;;;;;;3.23;100.00;93994.50;5119829;27;20896;-77
2023/12/19 10:40:33;;;;;;;83.25;52.35;;;;;;;3.17;100.00;93983.16;5108388;28;20039;-77
2023/12/19 10:43:00;;;;;;;93.63;56.38;;;;;;;3.13;100.00;93984.38;5110144;27;20043;-77
2023/12/19 10:45:27;;;;;;;100.18;55.78;;;;;;;3.32;100.00;93985.97;5112529;27;20052;-79
2023/12/19 10:47:54;;;;;;;91.30;48.63;;;;;;;3.32;100.00;93971.56;5125603;27;20043;-79
2023/12/19 10:50:22;;;;;;;77.13;42.97;;;;;;;3.38;100.00;93972.69;5126916;27;20077;-79
2023/12/19 10:52:52;;;;;;;87.57;50.90;;;;;;;3.55;100.00;93970.28;5108550;28;20514;-78
2023/12/19 10:55:21;;;;;;;107.93;58.55;;;;;;;3.46;100.00;93956.72;5107954;28;20514;-78
2023/12/19 10:57:50;;;;;;;100.55;55.30;;;;;;;3.76;100.00;93969.19;5107762;28;20059;-78
2023/12/19 11:00:22;;;;;;;92.80;56.17;;;;;;;3.69;100.00;93948.63;5108616;28;20047;-78
2023/12/19 11:03:05;;;;;;;97.63;55.47;;;;;;;3.70;100.00;93937.56;5111877;28;20407;-78
2023/12/19 11:05:40;;;;;;;107.15;59.55;;;;;;;3.83;100.00;93954.91;5114280;28;20415;-78
2023/12/19 11:08:14;;;;;;;99.53;57.05;;;;;;;3.87;100.00;93939.25;5119601;27;20047;-80
2023/12/19 11:10:42;;;;;;;112.68;61.70;;;;;;;3.75;100.00;93937.88;5108271;27;20047;-79
2023/12/19 11:13:11;;;;;;;108.13;63.60;;;;;;;3.75;100.00;93927.72;5107965;28;20058;-77
2023/12/19 11:15:45;;;;;;;114.38;63.03;;;;;;;3.84;100.00;93918.41;5112435;28;20051;-77
2023/12/19 11:18:26;;;;;;;107.45;62.05;;;;;;;3.80;100.00;93917.91;5107558;28;20044;-77
2023/12/19 11:21:01;;;;;;;113.88;64.00;;;;;;;4.04;100.00;93908.03;5111563;28;20108;-77
2023/12/19 11:23:42;;;;;;;118.63;62.05;;;;;;;3.99;100.00;93914.34;5107239;28;20475;-77
2023/12/19 11:26:17;;;;;;;115.10;60.25;;;;;;;4.17;100.00;93907.59;5108402;27;20562;-77
2023/12/19 11:28:44;;;;;;;101.70;59.92;;;;;;;4.17;100.00;93898.22;5107596;28;20055;-77
2023/12/19 11:31:28;;;;;;;94.25;55.97;;;;;;;4.06;100.00;93891.66;5107686;28;20047;-77
2023/12/19 11:33:55;;;;;;;95.88;55.78;;;;;;;4.08;100.00;93883.91;5108010;28;20410;-77
2023/12/19 11:36:22;;;;;;;86.35;47.35;;;;;;;4.16;100.00;93876.28;5107821;28;20495;-77